Carlisle Airport, United Kingdom

3:31 AM BST on September 01, 2015 (GMT +0100)
Brampton, Cumbria | | Change Station
CLOSE
Current Station
Personal Weather Station
Location: Brampton, CUMBRIA
Elevation: 390 ft
Nearby Weather Stations

Elev 390 ft 54.94 °N, 2.73 °W | Updated 18 seconds ago

Partly Cloudy
Partly Cloudy
49.3 °F
Feels Like 49 °F
N
0.0
Wind Variable Wind from North
Gusts 2.0 mph

Today
High -- | Low -- °F
--% Chance of Precip.
Yesterday
High -- | Low -- °F
Precip. -- in
6:16 AM 8:04 PM
Waning Gibbous, 92% visible
Pressure 30.04 in
Visibility 6.2 miles
Clouds Few 3800 ft
Windchill 49 °F
Dew Point 47 °F
Humidity 91%
Rainfall 0.00 in
Snow Depth Not available.
UV 0 out of 12
Pollen Not available.
Air Quality Not available.
Flu Activity Not available.
METAR EGNT 010220Z 31004KT 9999 FEW038 11/10 Q1017
Pressure 30.04 in
Visibility 6.2 miles
Clouds Few 3800 ft
Windchill 49 °F
Dew Point 47 °F
Humidity 91%
Rainfall 0.00 in
Snow Depth Not available.
UV 0 out of 12
Pollen Not available.
Air Quality Not available.
Flu Activity Not available.
METAR EGNT 010220Z 31004KT 9999 FEW038 11/10 Q1017

10-Day Weather Forecast

×

Almanac

Astronomy

Sep. 01, 2015 Rise Set
Actual Time
Civil Twilight
Nautical Twilight
Astronomical Twilight
Moon
Length of Visible Light
Length of Day
Tomorrow will be .
, % of the Moon is Illuminated

Today's Extremes

Country Highs Country Lows

Community

WunderPhotos

Upload Photos

1,851,455 photos uploaded!

WunderBlogs® & News

Nearby

Air Quality

  Air Quality AQ Index Pollutant
Not available.

Snow Depth

Station Depth Elevation

Earthquake Activity

City Distance Mag. Time & Date
Minimum magnitude displayed is 2.5.

Coastal Water Temperatures

Place Temperature

Stations

Nearby Weather Stations

Station Location Temp. Windchill Dew Point Humidity Wind Precip. Elev Updated Type